createdAt,value
2023-05-19T00:09:09.536Z,99571.45
2023-05-19T00:19:35.590Z,99568.51
2023-05-19T00:30:00.929Z,99559.86
2023-05-19T00:40:30.269Z,99552.42
2023-05-19T00:51:02.631Z,99541.06
2023-05-19T01:01:49.174Z,99533.61
2023-05-19T01:12:14.807Z,99517.11
2023-05-19T01:23:19.894Z,99514.38
2023-05-19T01:33:47.836Z,99504.27
2023-05-19T01:44:14.959Z,99508.93
2023-05-19T01:54:40.844Z,99507.58
2023-05-19T02:05:19.843Z,99499.41
2023-05-19T02:15:48.315Z,99495.16
2023-05-19T02:26:12.559Z,99488.13
2023-05-19T02:36:41.180Z,99493.54
2023-05-19T02:47:07.655Z,99487.55
2023-05-19T02:57:34.250Z,99473.83
2023-05-19T03:08:00.109Z,99479.69
2023-05-19T03:18:26.253Z,99466.58
2023-05-19T03:28:52.112Z,99469.47
2023-05-19T03:39:17.734Z,99489.35
2023-05-19T03:49:43.373Z,99495.32
2023-05-19T04:00:12.438Z,99497.98
2023-05-19T04:10:38.496Z,99501.23
2023-05-19T04:21:04.642Z,99496.02
2023-05-19T04:31:30.659Z,99499.56
2023-05-19T04:41:57.058Z,99503.26
2023-05-19T04:52:22.961Z,99501.89
2023-05-19T05:02:50.148Z,99503.48
2023-05-19T05:13:17.337Z,99504.19
2023-05-19T05:23:44.092Z,99509.14
2023-05-19T05:34:09.864Z,99509.62
2023-05-19T05:44:36.275Z,99518.86
2023-05-19T06:05:47.971Z,99522.61
2023-05-19T06:16:14.014Z,99524.57
2023-05-19T06:26:39.703Z,99524.58
2023-05-19T06:37:05.981Z,99530.66
2023-05-19T06:47:31.964Z,99532.75
2023-05-19T06:57:58.092Z,99536.21
2023-05-19T07:08:24.273Z,99536.59
2023-05-19T07:18:50.146Z,99538.54
2023-05-19T07:29:16.329Z,99529.37
2023-05-19T07:39:42.211Z,99526.76
2023-05-19T07:50:09.442Z,99535.30
2023-05-19T08:00:35.856Z,99538.44
2023-05-19T08:11:05.396Z,99537.39
2023-05-19T08:21:31.421Z,99543.83
2023-05-19T08:31:58.649Z,99549.59
2023-05-19T08:42:24.283Z,99555.51
2023-05-19T08:52:58.523Z,99558.30
2023-05-19T09:03:26.689Z,99554.80
2023-05-19T09:13:53.072Z,99557.42
2023-05-19T09:24:19.404Z,99562.31
2023-05-19T09:34:46.032Z,99559.67
2023-05-19T09:45:13.077Z,99557.21
2023-05-19T09:55:38.778Z,99555.27
2023-05-19T10:06:09.279Z,99545.14
2023-05-19T10:16:37.209Z,99544.25
2023-05-19T10:27:07.887Z,99539.88
2023-05-19T10:37:43.030Z,99541.23
2023-05-19T10:48:15.254Z,99537.20
2023-05-19T10:58:52.346Z,99530.85
2023-05-19T11:09:22.662Z,99525.73
2023-05-19T11:19:59.479Z,99522.35
2023-05-19T11:41:10.624Z,99526.77
2023-05-19T11:51:38.599Z,99527.90
2023-05-19T12:02:26.286Z,99527.69
2023-05-19T12:12:51.431Z,99531.48
2023-05-19T12:23:17.822Z,99527.91
2023-05-19T12:33:43.595Z,99520.77
2023-05-19T12:44:18.376Z,99511.03
2023-05-19T12:54:44.187Z,99508.55
2023-05-19T13:05:10.610Z,99502.14
2023-05-19T13:15:37.987Z,99491.06
2023-05-19T13:26:06.732Z,99491.80
2023-05-19T13:36:33.421Z,99494.31
2023-05-19T13:47:00.050Z,99483.96
2023-05-19T13:57:26.660Z,99476.55
2023-05-19T14:07:52.661Z,99475.08
2023-05-19T14:18:18.723Z,99485.73
2023-05-19T14:28:44.805Z,99499.16
2023-05-19T14:39:10.561Z,99494.98
2023-05-19T14:49:36.861Z,99491.77
2023-05-19T15:00:02.970Z,99502.39
2023-05-19T15:10:28.894Z,99492.66
2023-05-19T15:20:54.677Z,99487.56
2023-05-19T15:31:21.856Z,99492.88
2023-05-19T15:41:47.842Z,99489.87
2023-05-19T15:52:13.432Z,99485.52
2023-05-19T16:02:39.487Z,99487.29
2023-05-19T16:13:05.542Z,99497.87
2023-05-19T16:23:31.622Z,99503.73
2023-05-19T16:33:57.464Z,99498.02
2023-05-19T16:44:24.776Z,99502.89
2023-05-19T16:54:50.627Z,99500.84
2023-05-19T17:05:16.948Z,99505.12
2023-05-19T17:15:43.471Z,99509.46
2023-05-19T17:26:09.720Z,99505.85
2023-05-19T17:36:35.898Z,99514.78
2023-05-19T17:47:02.555Z,99523.02
2023-05-19T17:57:33.515Z,99529.38
2023-05-19T18:07:59.491Z,99531.83
2023-05-19T18:18:25.054Z,99540.84
2023-05-19T18:28:51.297Z,99547.35
2023-05-19T18:39:16.956Z,99548.79
2023-05-19T18:49:43.812Z,99549.70
2023-05-19T19:00:11.964Z,99558.40
2023-05-19T19:10:40.429Z,99566.66
2023-05-19T19:21:07.583Z,99572.32
2023-05-19T19:31:33.806Z,99575.19
2023-05-19T19:42:00.079Z,99571.48
2023-05-19T19:52:26.790Z,99566.08
2023-05-19T20:03:03.727Z,99572.24
2023-05-19T20:13:32.921Z,99571.06
2023-05-19T20:23:58.997Z,99564.66
2023-05-19T20:34:25.188Z,99563.64
2023-05-19T20:44:51.473Z,99560.00
2023-05-19T20:55:17.439Z,99560.13
2023-05-19T21:05:43.078Z,99556.11
2023-05-19T21:16:09.482Z,99551.76
2023-05-19T21:26:35.523Z,99550.40
2023-05-19T21:37:01.106Z,99549.53
2023-05-19T21:47:27.032Z,99558.72
2023-05-19T21:57:52.947Z,99574.08
2023-05-19T22:08:19.872Z,99581.73
2023-05-19T22:18:45.869Z,99586.64
2023-05-19T22:29:15.266Z,99574.66
2023-05-19T22:39:41.447Z,99554.11
2023-05-19T22:50:10.634Z,99550.78
2023-05-19T23:00:36.560Z,99547.81
2023-05-19T23:11:03.788Z,99542.44
2023-05-19T23:21:31.486Z,99531.80
2023-05-19T23:31:57.219Z,99532.66
2023-05-19T23:42:23.012Z,99535.11
2023-05-19T23:52:49.424Z,99526.39
